Terminal Aerodrome Forecast
Issued by NWS

Home | Current Version | Previous Version | Text Only | Print | Product List | Glossary On
Versions: 1 2 3 4 5 6 7 8 9 10 11 12 13
000
FTUS43 KDDC 262338
TAFGCK
TAF
KGCK 262338Z 2700/2724 13010KT P6SM SCT250
     FM271500 34013G23KT P6SM OVC050=

USA.gov is the U.S. government's official web portal to all federal, state and local government web resources and services.